sensor_id;sensor_type;location;lat;lon;timestamp;pressure;altitude;pressure_sealevel;temperature
67353;BMP180;54238;52.278;21.056;2023-04-29T00:01:50;100469.80;;;7.90
67353;BMP180;54238;52.278;21.056;2023-04-29T00:04:27;100468.80;;;7.90
67353;BMP180;54238;52.278;21.056;2023-04-29T00:06:59;100463.40;;;7.86
67353;BMP180;54238;52.278;21.056;2023-04-29T00:09:30;100465.80;;;7.80
67353;BMP180;54238;52.278;21.056;2023-04-29T00:12:00;100464.20;;;7.80
67353;BMP180;54238;52.278;21.056;2023-04-29T00:14:28;100462.60;;;7.80
67353;BMP180;54238;52.278;21.056;2023-04-29T00:16:55;100462.60;;;7.80
67353;BMP180;54238;52.278;21.056;2023-04-29T00:19:25;100460.40;;;7.80
67353;BMP180;54238;52.278;21.056;2023-04-29T00:21:53;100456.60;;;7.74
67353;BMP180;54238;52.278;21.056;2023-04-29T00:24:23;100460.60;;;7.72
67353;BMP180;54238;52.278;21.056;2023-04-29T00:26:50;100456.40;;;7.70
67353;BMP180;54238;52.278;21.056;2023-04-29T00:29:19;100460.40;;;7.70
67353;BMP180;54238;52.278;21.056;2023-04-29T00:31:47;100459.00;;;7.70
67353;BMP180;54238;52.278;21.056;2023-04-29T00:34:30;100460.00;;;7.70
67353;BMP180;54238;52.278;21.056;2023-04-29T00:36:59;100451.60;;;7.70
67353;BMP180;54238;52.278;21.056;2023-04-29T00:39:59;100450.20;;;7.70
67353;BMP180;54238;52.278;21.056;2023-04-29T00:42:28;100442.80;;;7.70
67353;BMP180;54238;52.278;21.056;2023-04-29T00:44:57;100443.00;;;7.70
67353;BMP180;54238;52.278;21.056;2023-04-29T00:47:27;100440.20;;;7.70
67353;BMP180;54238;52.278;21.056;2023-04-29T00:49:54;100441.80;;;7.70
67353;BMP180;54238;52.278;21.056;2023-04-29T00:52:25;100439.00;;;7.70
67353;BMP180;54238;52.278;21.056;2023-04-29T00:55:27;100435.80;;;7.70
67353;BMP180;54238;52.278;21.056;2023-04-29T00:57:59;100434.60;;;7.70
67353;BMP180;54238;52.278;21.056;2023-04-29T01:00:30;100429.40;;;7.70
67353;BMP180;54238;52.278;21.056;2023-04-29T01:03:00;100434.20;;;7.70
67353;BMP180;54238;52.278;21.056;2023-04-29T01:05:28;100431.40;;;7.70
67353;BMP180;54238;52.278;21.056;2023-04-29T01:11:09;100430.40;;;7.70
67353;BMP180;54238;52.278;21.056;2023-04-29T01:13:50;100431.20;;;7.70
67353;BMP180;54238;52.278;21.056;2023-04-29T01:16:51;100430.40;;;7.70
67353;BMP180;54238;52.278;21.056;2023-04-29T01:19:39;100431.60;;;7.70
67353;BMP180;54238;52.278;21.056;2023-04-29T01:22:13;100430.60;;;7.70
67353;BMP180;54238;52.278;21.056;2023-04-29T01:24:43;100428.80;;;7.70
67353;BMP180;54238;52.278;21.056;2023-04-29T01:27:36;100425.00;;;7.70
67353;BMP180;54238;52.278;21.056;2023-04-29T01:36:41;100427.80;;;7.60
67353;BMP180;54238;52.278;21.056;2023-04-29T01:39:45;100427.80;;;7.60
67353;BMP180;54238;52.278;21.056;2023-04-29T01:45:26;100427.00;;;7.60
67353;BMP180;54238;52.278;21.056;2023-04-29T01:47:58;100426.20;;;7.60
67353;BMP180;54238;52.278;21.056;2023-04-29T01:50:26;100422.80;;;7.60
67353;BMP180;54238;52.278;21.056;2023-04-29T01:52:56;100425.60;;;7.60
67353;BMP180;54238;52.278;21.056;2023-04-29T01:55:26;100424.80;;;7.60
67353;BMP180;54238;52.278;21.056;2023-04-29T01:57:55;100426.00;;;7.60
67353;BMP180;54238;52.278;21.056;2023-04-29T02:00:25;100421.80;;;7.60
67353;BMP180;54238;52.278;21.056;2023-04-29T02:02:54;100418.60;;;7.60
67353;BMP180;54238;52.278;21.056;2023-04-29T02:05:21;100420.60;;;7.60
67353;BMP180;54238;52.278;21.056;2023-04-29T02:07:50;100425.00;;;7.60
67353;BMP180;54238;52.278;21.056;2023-04-29T02:10:22;100423.00;;;7.60
67353;BMP180;54238;52.278;21.056;2023-04-29T02:12:52;100420.00;;;7.60
67353;BMP180;54238;52.278;21.056;2023-04-29T02:15:25;100421.40;;;7.60
67353;BMP180;54238;52.278;21.056;2023-04-29T02:17:56;100414.40;;;7.60
67353;BMP180;54238;52.278;21.056;2023-04-29T02:20:25;100416.20;;;7.60
67353;BMP180;54238;52.278;21.056;2023-04-29T02:22:52;100414.80;;;7.58
67353;BMP180;54238;52.278;21.056;2023-04-29T02:25:20;100411.80;;;7.60
67353;BMP180;54238;52.278;21.056;2023-04-29T02:27:47;100411.80;;;7.60
67353;BMP180;54238;52.278;21.056;2023-04-29T02:30:14;100410.80;;;7.60
67353;BMP180;54238;52.278;21.056;2023-04-29T02:32:46;100410.60;;;7.60
67353;BMP180;54238;52.278;21.056;2023-04-29T02:35:18;100409.00;;;7.54
67353;BMP180;54238;52.278;21.056;2023-04-29T02:37:50;100408.40;;;7.50
67353;BMP180;54238;52.278;21.056;2023-04-29T02:40:19;100409.20;;;7.50
67353;BMP180;54238;52.278;21.056;2023-04-29T02:42:54;100404.80;;;7.50
67353;BMP180;54238;52.278;21.056;2023-04-29T02:45:28;100405.40;;;7.50
67353;BMP180;54238;52.278;21.056;2023-04-29T02:47:57;100400.80;;;7.50
67353;BMP180;54238;52.278;21.056;2023-04-29T02:50:27;100402.40;;;7.50
67353;BMP180;54238;52.278;21.056;2023-04-29T02:52:56;100402.80;;;7.50
67353;BMP180;54238;52.278;21.056;2023-04-29T02:55:23;100403.40;;;7.50
67353;BMP180;54238;52.278;21.056;2023-04-29T02:57:52;100403.00;;;7.50
67353;BMP180;54238;52.278;21.056;2023-04-29T03:00:22;100396.80;;;7.50
67353;BMP180;54238;52.278;21.056;2023-04-29T03:02:54;100399.20;;;7.48
67353;BMP180;54238;52.278;21.056;2023-04-29T03:05:25;100397.20;;;7.50
67353;BMP180;54238;52.278;21.056;2023-04-29T03:07:53;100387.00;;;7.50
67353;BMP180;54238;52.278;21.056;2023-04-29T03:10:21;100390.60;;;7.48
67353;BMP180;54238;52.278;21.056;2023-04-29T03:12:48;100390.60;;;7.50
67353;BMP180;54238;52.278;21.056;2023-04-29T03:15:15;100393.20;;;7.50
67353;BMP180;54238;52.278;21.056;2023-04-29T03:17:43;100393.00;;;7.50
67353;BMP180;54238;52.278;21.056;2023-04-29T03:20:14;100389.40;;;7.50
67353;BMP180;54238;52.278;21.056;2023-04-29T03:22:46;100390.60;;;7.50
67353;BMP180;54238;52.278;21.056;2023-04-29T03:25:15;100389.40;;;7.50
67353;BMP180;54238;52.278;21.056;2023-04-29T03:27:52;100385.80;;;7.50
67353;BMP180;54238;52.278;21.056;2023-04-29T03:30:19;100388.80;;;7.50
67353;BMP180;54238;52.278;21.056;2023-04-29T03:32:47;100387.80;;;7.50
67353;BMP180;54238;52.278;21.056;2023-04-29T03:35:17;100386.60;;;7.58
67353;BMP180;54238;52.278;21.056;2023-04-29T03:37:44;100386.60;;;7.60
67353;BMP180;54238;52.278;21.056;2023-04-29T03:40:12;100389.00;;;7.60
67353;BMP180;54238;52.278;21.056;2023-04-29T03:42:42;100388.80;;;7.60
67353;BMP180;54238;52.278;21.056;2023-04-29T03:45:10;100391.60;;;7.60
67353;BMP180;54238;52.278;21.056;2023-04-29T03:47:44;100387.60;;;7.60
67353;BMP180;54238;52.278;21.056;2023-04-29T03:50:13;100385.80;;;7.60
67353;BMP180;54238;52.278;21.056;2023-04-29T03:52:41;100390.00;;;7.62
67353;BMP180;54238;52.278;21.056;2023-04-29T03:55:10;100389.60;;;7.60
67353;BMP180;54238;52.278;21.056;2023-04-29T03:57:41;100392.80;;;7.70
67353;BMP180;54238;52.278;21.056;2023-04-29T04:00:12;100390.20;;;7.70
67353;BMP180;54238;52.278;21.056;2023-04-29T04:02:46;100393.00;;;7.70
67353;BMP180;54238;52.278;21.056;2023-04-29T04:05:16;100390.00;;;7.70
67353;BMP180;54238;52.278;21.056;2023-04-29T04:07:53;100389.40;;;7.70
67353;BMP180;54238;52.278;21.056;2023-04-29T04:10:22;100391.20;;;7.78
67353;BMP180;54238;52.278;21.056;2023-04-29T04:13:00;100387.40;;;7.80
67353;BMP180;54238;52.278;21.056;2023-04-29T04:15:34;100389.40;;;7.80
67353;BMP180;54238;52.278;21.056;2023-04-29T04:18:09;100390.60;;;7.80
67353;BMP180;54238;52.278;21.056;2023-04-29T04:20:41;100387.00;;;7.86
67353;BMP180;54238;52.278;21.056;2023-04-29T04:23:14;100384.80;;;7.90
67353;BMP180;54238;52.278;21.056;2023-04-29T04:25:50;100382.60;;;7.90
67353;BMP180;54238;52.278;21.056;2023-04-29T04:28:23;100382.80;;;7.90
67353;BMP180;54238;52.278;21.056;2023-04-29T04:30:50;100382.20;;;7.90
67353;BMP180;54238;52.278;21.056;2023-04-29T04:33:26;100381.80;;;8.00
67353;BMP180;54238;52.278;21.056;2023-04-29T04:35:56;100382.40;;;8.00
67353;BMP180;54238;52.278;21.056;2023-04-29T04:38:25;100380.40;;;8.02
67353;BMP180;54238;52.278;21.056;2023-04-29T04:40:57;100381.20;;;8.10
67353;BMP180;54238;52.278;21.056;2023-04-29T04:43:24;100376.80;;;8.10
67353;BMP180;54238;52.278;21.056;2023-04-29T04:45:58;100379.00;;;8.12
67353;BMP180;54238;52.278;21.056;2023-04-29T04:48:30;100375.00;;;8.20
67353;BMP180;54238;52.278;21.056;2023-04-29T04:51:12;100376.00;;;8.20
67353;BMP180;54238;52.278;21.056;2023-04-29T04:53:44;100378.00;;;8.30
67353;BMP180;54238;52.278;21.056;2023-04-29T04:56:16;100372.40;;;8.30
67353;BMP180;54238;52.278;21.056;2023-04-29T04:58:45;100374.60;;;8.40
67353;BMP180;54238;52.278;21.056;2023-04-29T05:01:15;100370.60;;;8.50
67353;BMP180;54238;52.278;21.056;2023-04-29T05:03:46;100368.60;;;8.60
67353;BMP180;54238;52.278;21.056;2023-04-29T05:06:16;100370.80;;;8.68
67353;BMP180;54238;52.278;21.056;2023-04-29T05:08:43;100369.40;;;8.70
67353;BMP180;54238;52.278;21.056;2023-04-29T05:11:20;100371.80;;;8.80
67353;BMP180;54238;52.278;21.056;2023-04-29T05:13:52;100374.80;;;8.90
67353;BMP180;54238;52.278;21.056;2023-04-29T05:16:19;100375.80;;;8.90
67353;BMP180;54238;52.278;21.056;2023-04-29T05:18:46;100368.20;;;9.00
67353;BMP180;54238;52.278;21.056;2023-04-29T05:21:18;100370.80;;;9.00
67353;BMP180;54238;52.278;21.056;2023-04-29T05:23:47;100366.00;;;9.10
67353;BMP180;54238;52.278;21.056;2023-04-29T05:26:15;100367.60;;;9.16
67353;BMP180;54238;52.278;21.056;2023-04-29T05:28:46;100372.60;;;9.20
67353;BMP180;54238;52.278;21.056;2023-04-29T05:31:15;100369.80;;;9.30
67353;BMP180;54238;52.278;21.056;2023-04-29T05:33:47;100372.00;;;9.30
67353;BMP180;54238;52.278;21.056;2023-04-29T05:36:19;100366.80;;;9.36
67353;BMP180;54238;52.278;21.056;2023-04-29T05:38:48;100364.60;;;9.40
67353;BMP180;54238;52.278;21.056;2023-04-29T05:41:16;100364.80;;;9.50
67353;BMP180;54238;52.278;21.056;2023-04-29T05:43:45;100365.40;;;9.50
67353;BMP180;54238;52.278;21.056;2023-04-29T05:46:17;100364.00;;;9.54
67353;BMP180;54238;52.278;21.056;2023-04-29T05:48:46;100361.60;;;9.60
67353;BMP180;54238;52.278;21.056;2023-04-29T05:51:17;100366.00;;;9.70
67353;BMP180;54238;52.278;21.056;2023-04-29T05:53:44;100368.00;;;9.70
67353;BMP180;54238;52.278;21.056;2023-04-29T05:56:11;100369.80;;;9.80
67353;BMP180;54238;52.278;21.056;2023-04-29T05:58:40;100367.60;;;9.90
67353;BMP180;54238;52.278;21.056;2023-04-29T06:01:09;100367.80;;;10.00
67353;BMP180;54238;52.278;21.056;2023-04-29T06:03:39;100368.40;;;10.00
67353;BMP180;54238;52.278;21.056;2023-04-29T06:06:10;100363.80;;;10.10
67353;BMP180;54238;52.278;21.056;2023-04-29T06:08:40;100371.80;;;10.20
67353;BMP180;54238;52.278;21.056;2023-04-29T06:11:12;100369.80;;;10.30
67353;BMP180;54238;52.278;21.056;2023-04-29T06:13:43;100368.20;;;10.42
67353;BMP180;54238;52.278;21.056;2023-04-29T06:16:15;100369.40;;;10.60
67353;BMP180;54238;52.278;21.056;2023-04-29T06:18:45;100374.00;;;10.70
67353;BMP180;54238;52.278;21.056;2023-04-29T06:21:16;100372.80;;;10.80
67353;BMP180;54238;52.278;21.056;2023-04-29T06:23:48;100370.40;;;10.82
67353;BMP180;54238;52.278;21.056;2023-04-29T06:26:17;100368.80;;;10.90
67353;BMP180;54238;52.278;21.056;2023-04-29T06:28:49;100365.40;;;10.98
67353;BMP180;54238;52.278;21.056;2023-04-29T06:31:19;100362.80;;;11.04
67353;BMP180;54238;52.278;21.056;2023-04-29T06:33:49;100369.40;;;11.10
67353;BMP180;54238;52.278;21.056;2023-04-29T06:36:21;100367.00;;;11.20
67353;BMP180;54238;52.278;21.056;2023-04-29T06:38:52;100374.20;;;11.30
67353;BMP180;54238;52.278;21.056;2023-04-29T06:41:20;100375.00;;;11.40
67353;BMP180;54238;52.278;21.056;2023-04-29T06:43:48;100371.00;;;11.40
67353;BMP180;54238;52.278;21.056;2023-04-29T06:46:17;100370.60;;;11.50
67353;BMP180;54238;52.278;21.056;2023-04-29T06:48:47;100370.80;;;11.50
67353;BMP180;54238;52.278;21.056;2023-04-29T06:51:14;100362.40;;;11.60
67353;BMP180;54238;52.278;21.056;2023-04-29T06:53:43;100368.20;;;11.74
67353;BMP180;54238;52.278;21.056;2023-04-29T06:56:12;100367.80;;;11.90
67353;BMP180;54238;52.278;21.056;2023-04-29T06:58:41;100365.20;;;12.00
67353;BMP180;54238;52.278;21.056;2023-04-29T07:01:15;100366.40;;;12.20
67353;BMP180;54238;52.278;21.056;2023-04-29T07:03:43;100365.80;;;12.30
67353;BMP180;54238;52.278;21.056;2023-04-29T07:06:13;100364.00;;;12.48
67353;BMP180;54238;52.278;21.056;2023-04-29T07:08:46;100365.60;;;12.60
67353;BMP180;54238;52.278;21.056;2023-04-29T07:11:15;100362.20;;;12.74
67353;BMP180;54238;52.278;21.056;2023-04-29T07:13:44;100356.80;;;12.90
67353;BMP180;54238;52.278;21.056;2023-04-29T07:16:16;100365.20;;;13.06
67353;BMP180;54238;52.278;21.056;2023-04-29T07:18:49;100360.60;;;13.20
67353;BMP180;54238;52.278;21.056;2023-04-29T07:21:19;100357.40;;;13.38
67353;BMP180;54238;52.278;21.056;2023-04-29T07:23:48;100355.20;;;13.52
67353;BMP180;54238;52.278;21.056;2023-04-29T07:26:22;100356.00;;;13.76
67353;BMP180;54238;52.278;21.056;2023-04-29T07:28:52;100358.00;;;13.90
67353;BMP180;54238;52.278;21.056;2023-04-29T07:31:22;100357.60;;;14.00
67353;BMP180;54238;52.278;21.056;2023-04-29T07:33:51;100355.60;;;14.10
67353;BMP180;54238;52.278;21.056;2023-04-29T07:36:28;100356.80;;;14.20
67353;BMP180;54238;52.278;21.056;2023-04-29T07:38:59;100355.20;;;14.38
67353;BMP180;54238;52.278;21.056;2023-04-29T07:41:29;100356.00;;;14.50
67353;BMP180;54238;52.278;21.056;2023-04-29T07:43:59;100356.60;;;14.60
67353;BMP180;54238;52.278;21.056;2023-04-29T07:46:33;100353.00;;;14.70
67353;BMP180;54238;52.278;21.056;2023-04-29T07:49:06;100352.80;;;14.78
67353;BMP180;54238;52.278;21.056;2023-04-29T07:51:39;100349.40;;;14.86
67353;BMP180;54238;52.278;21.056;2023-04-29T07:54:13;100351.00;;;15.00
67353;BMP180;54238;52.278;21.056;2023-04-29T07:56:42;100359.40;;;15.00
67353;BMP180;54238;52.278;21.056;2023-04-29T07:59:11;100357.60;;;15.10
67353;BMP180;54238;52.278;21.056;2023-04-29T08:01:43;100351.20;;;15.10
67353;BMP180;54238;52.278;21.056;2023-04-29T08:04:15;100354.20;;;15.26
67353;BMP180;54238;52.278;21.056;2023-04-29T08:06:44;100354.00;;;15.40
67353;BMP180;54238;52.278;21.056;2023-04-29T08:09:13;100345.80;;;15.50
67353;BMP180;54238;52.278;21.056;2023-04-29T08:11:42;100355.60;;;15.52
67353;BMP180;54238;52.278;21.056;2023-04-29T08:14:13;100358.40;;;15.60
67353;BMP180;54238;52.278;21.056;2023-04-29T08:16:43;100351.40;;;15.70
67353;BMP180;54238;52.278;21.056;2023-04-29T08:19:14;100349.20;;;15.78
67353;BMP180;54238;52.278;21.056;2023-04-29T08:21:46;100352.20;;;15.80
67353;BMP180;54238;52.278;21.056;2023-04-29T08:24:15;100342.40;;;15.90
67353;BMP180;54238;52.278;21.056;2023-04-29T08:26:42;100345.40;;;16.00
67353;BMP180;54238;52.278;21.056;2023-04-29T08:29:15;100343.60;;;16.12
67353;BMP180;54238;52.278;21.056;2023-04-29T08:31:45;100347.00;;;16.28
67353;BMP180;54238;52.278;21.056;2023-04-29T08:34:15;100344.00;;;16.40
67353;BMP180;54238;52.278;21.056;2023-04-29T08:36:48;100349.80;;;16.50
67353;BMP180;54238;52.278;21.056;2023-04-29T08:39:23;100347.20;;;16.60
67353;BMP180;54238;52.278;21.056;2023-04-29T08:41:58;100347.00;;;16.76
67353;BMP180;54238;52.278;21.056;2023-04-29T08:44:30;100342.60;;;16.90
67353;BMP180;54238;52.278;21.056;2023-04-29T08:47:06;100350.80;;;17.00
67353;BMP180;54238;52.278;21.056;2023-04-29T08:49:45;100339.20;;;17.02
67353;BMP180;54238;52.278;21.056;2023-04-29T08:52:12;100344.40;;;17.20
67353;BMP180;54238;52.278;21.056;2023-04-29T08:54:41;100343.00;;;17.30
67353;BMP180;54238;52.278;21.056;2023-04-29T08:57:10;100338.40;;;17.40
67353;BMP180;54238;52.278;21.056;2023-04-29T08:59:45;100335.40;;;17.50
67353;BMP180;54238;52.278;21.056;2023-04-29T09:02:15;100345.60;;;17.60
67353;BMP180;54238;52.278;21.056;2023-04-29T09:05:04;100334.80;;;17.80
67353;BMP180;54238;52.278;21.056;2023-04-29T09:07:36;100337.00;;;18.10
67353;BMP180;54238;52.278;21.056;2023-04-29T09:10:14;100330.20;;;18.28
67353;BMP180;54238;52.278;21.056;2023-04-29T09:12:42;100336.60;;;18.40
67353;BMP180;54238;52.278;21.056;2023-04-29T09:15:17;100335.40;;;18.60
67353;BMP180;54238;52.278;21.056;2023-04-29T09:17:50;100326.40;;;18.80
67353;BMP180;54238;52.278;21.056;2023-04-29T09:23:09;100332.40;;;19.30
67353;BMP180;54238;52.278;21.056;2023-04-29T09:25:39;100334.20;;;19.50
67353;BMP180;54238;52.278;21.056;2023-04-29T09:28:19;100338.40;;;19.80
67353;BMP180;54238;52.278;21.056;2023-04-29T09:30:49;100336.40;;;20.18
67353;BMP180;54238;52.278;21.056;2023-04-29T09:33:21;100334.00;;;20.40
67353;BMP180;54238;52.278;21.056;2023-04-29T09:35:48;100336.40;;;20.40
67353;BMP180;54238;52.278;21.056;2023-04-29T09:38:15;100346.00;;;20.60
67353;BMP180;54238;52.278;21.056;2023-04-29T09:40:43;100332.20;;;20.86
67353;BMP180;54238;52.278;21.056;2023-04-29T09:43:17;100341.60;;;21.08
67353;BMP180;54238;52.278;21.056;2023-04-29T09:45:49;100331.20;;;21.10
67353;BMP180;54238;52.278;21.056;2023-04-29T09:48:18;100334.80;;;21.10
67353;BMP180;54238;52.278;21.056;2023-04-29T09:51:00;100334.20;;;21.10
67353;BMP180;54238;52.278;21.056;2023-04-29T09:53:35;100326.00;;;21.10
67353;BMP180;54238;52.278;21.056;2023-04-29T09:56:04;100327.20;;;21.14
67353;BMP180;54238;52.278;21.056;2023-04-29T09:58:35;100324.80;;;21.20
67353;BMP180;54238;52.278;21.056;2023-04-29T10:01:06;100319.60;;;21.40
67353;BMP180;54238;52.278;21.056;2023-04-29T10:03:39;100317.00;;;21.64
67353;BMP180;54238;52.278;21.056;2023-04-29T10:06:08;100315.80;;;21.90
67353;BMP180;54238;52.278;21.056;2023-04-29T10:08:38;100318.40;;;22.12
67353;BMP180;54238;52.278;21.056;2023-04-29T10:11:12;100320.40;;;22.30
67353;BMP180;54238;52.278;21.056;2023-04-29T10:13:41;100318.00;;;22.50
67353;BMP180;54238;52.278;21.056;2023-04-29T10:16:36;100322.60;;;22.58
67353;BMP180;54238;52.278;21.056;2023-04-29T10:19:11;100306.20;;;22.54
67353;BMP180;54238;52.278;21.056;2023-04-29T10:21:47;100301.20;;;22.60
67353;BMP180;54238;52.278;21.056;2023-04-29T10:24:17;100299.20;;;22.70
67353;BMP180;54238;52.278;21.056;2023-04-29T10:26:50;100300.20;;;22.90
67353;BMP180;54238;52.278;21.056;2023-04-29T10:29:21;100301.80;;;23.00
67353;BMP180;54238;52.278;21.056;2023-04-29T10:31:51;100312.20;;;23.00
67353;BMP180;54238;52.278;21.056;2023-04-29T10:34:22;100310.00;;;23.00
67353;BMP180;54238;52.278;21.056;2023-04-29T10:36:50;100299.00;;;23.00
67353;BMP180;54238;52.278;21.056;2023-04-29T10:39:38;100287.40;;;22.90
67353;BMP180;54238;52.278;21.056;2023-04-29T10:42:41;100299.00;;;22.98
67353;BMP180;54238;52.278;21.056;2023-04-29T10:53:05;100289.60;;;23.60
67353;BMP180;54238;52.278;21.056;2023-04-29T10:55:37;100290.40;;;23.86
67353;BMP180;54238;52.278;21.056;2023-04-29T10:58:05;100291.00;;;24.10
67353;BMP180;54238;52.278;21.056;2023-04-29T11:00:54;100276.60;;;24.30
67353;BMP180;54238;52.278;21.056;2023-04-29T11:03:53;100280.00;;;24.50
67353;BMP180;54238;52.278;21.056;2023-04-29T11:09:18;100291.80;;;24.70
67353;BMP180;54238;52.278;21.056;2023-04-29T11:12:00;100280.40;;;24.90
67353;BMP180;54238;52.278;21.056;2023-04-29T11:17:13;100277.00;;;25.56
67353;BMP180;54238;52.278;21.056;2023-04-29T11:19:49;100279.60;;;25.90
67353;BMP180;54238;52.278;21.056;2023-04-29T11:24:58;100276.20;;;26.10
67353;BMP180;54238;52.278;21.056;2023-04-29T11:27:35;100271.20;;;26.30
67353;BMP180;54238;52.278;21.056;2023-04-29T11:30:07;100265.60;;;26.40
67353;BMP180;54238;52.278;21.056;2023-04-29T11:32:40;100279.40;;;26.62
67353;BMP180;54238;52.278;21.056;2023-04-29T11:35:16;100274.40;;;26.90
67353;BMP180;54238;52.278;21.056;2023-04-29T11:37:46;100275.60;;;26.90
67353;BMP180;54238;52.278;21.056;2023-04-29T11:40:15;100270.00;;;26.84
67353;BMP180;54238;52.278;21.056;2023-04-29T11:42:47;100277.60;;;27.02
67353;BMP180;54238;52.278;21.056;2023-04-29T11:45:18;100270.40;;;27.22
67353;BMP180;54238;52.278;21.056;2023-04-29T11:47:51;100268.20;;;27.50
67353;BMP180;54238;52.278;21.056;2023-04-29T11:50:22;100269.20;;;27.48
67353;BMP180;54238;52.278;21.056;2023-04-29T11:52:52;100259.60;;;27.50
67353;BMP180;54238;52.278;21.056;2023-04-29T11:55:24;100260.20;;;27.72
67353;BMP180;54238;52.278;21.056;2023-04-29T11:57:52;100262.00;;;28.00
67353;BMP180;54238;52.278;21.056;2023-04-29T12:00:25;100258.40;;;28.02
67353;BMP180;54238;52.278;21.056;2023-04-29T12:02:57;100270.00;;;28.20
67353;BMP180;54238;52.278;21.056;2023-04-29T12:05:31;100255.80;;;28.16
67353;BMP180;54238;52.278;21.056;2023-04-29T12:07:59;100256.20;;;28.16
67353;BMP180;54238;52.278;21.056;2023-04-29T12:10:28;100249.80;;;28.30
67353;BMP180;54238;52.278;21.056;2023-04-29T12:12:56;100250.40;;;28.40
67353;BMP180;54238;52.278;21.056;2023-04-29T12:15:27;100255.00;;;28.22
67353;BMP180;54238;52.278;21.056;2023-04-29T12:18:01;100246.40;;;27.88
67353;BMP180;54238;52.278;21.056;2023-04-29T12:20:28;100246.20;;;27.66
67353;BMP180;54238;52.278;21.056;2023-04-29T12:23:12;100242.80;;;27.60
67353;BMP180;54238;52.278;21.056;2023-04-29T12:25:48;100251.40;;;27.30
67353;BMP180;54238;52.278;21.056;2023-04-29T12:28:19;100247.80;;;26.54
67353;BMP180;54238;52.278;21.056;2023-04-29T12:30:51;100239.40;;;26.52
67353;BMP180;54238;52.278;21.056;2023-04-29T12:33:28;100235.80;;;26.40
67353;BMP180;54238;52.278;21.056;2023-04-29T12:35:57;100226.00;;;26.50
67353;BMP180;54238;52.278;21.056;2023-04-29T12:38:33;100233.20;;;26.96
67353;BMP180;54238;52.278;21.056;2023-04-29T12:41:09;100244.80;;;26.98
67353;BMP180;54238;52.278;21.056;2023-04-29T12:43:40;100242.60;;;26.52
67353;BMP180;54238;52.278;21.056;2023-04-29T12:46:12;100239.60;;;26.20
67353;BMP180;54238;52.278;21.056;2023-04-29T12:48:45;100229.20;;;26.10
67353;BMP180;54238;52.278;21.056;2023-04-29T12:51:13;100239.20;;;26.14
67353;BMP180;54238;52.278;21.056;2023-04-29T12:53:42;100229.20;;;26.30
67353;BMP180;54238;52.278;21.056;2023-04-29T12:56:11;100224.80;;;26.54
67353;BMP180;54238;52.278;21.056;2023-04-29T12:58:40;100222.00;;;27.04
67353;BMP180;54238;52.278;21.056;2023-04-29T13:01:09;100229.00;;;27.42
67353;BMP180;54238;52.278;21.056;2023-04-29T13:03:40;100219.20;;;27.40
67353;BMP180;54238;52.278;21.056;2023-04-29T13:06:09;100209.40;;;27.84
67353;BMP180;54238;52.278;21.056;2023-04-29T13:08:39;100228.00;;;28.30
67353;BMP180;54238;52.278;21.056;2023-04-29T13:11:08;100219.60;;;28.20
67353;BMP180;54238;52.278;21.056;2023-04-29T13:13:39;100222.60;;;27.68
67353;BMP180;54238;52.278;21.056;2023-04-29T13:16:08;100215.20;;;27.20
67353;BMP180;54238;52.278;21.056;2023-04-29T13:18:40;100214.40;;;26.90
67353;BMP180;54238;52.278;21.056;2023-04-29T13:21:07;100210.20;;;26.90
67353;BMP180;54238;52.278;21.056;2023-04-29T13:23:39;100223.40;;;27.30
67353;BMP180;54238;52.278;21.056;2023-04-29T13:26:12;100207.40;;;27.40
67353;BMP180;54238;52.278;21.056;2023-04-29T13:31:34;100208.40;;;27.64
67353;BMP180;54238;52.278;21.056;2023-04-29T13:34:01;100205.80;;;26.96
67353;BMP180;54238;52.278;21.056;2023-04-29T13:36:32;100201.00;;;26.30
67353;BMP180;54238;52.278;21.056;2023-04-29T13:38:59;100197.00;;;25.80
67353;BMP180;54238;52.278;21.056;2023-04-29T13:41:27;100195.80;;;25.24
67353;BMP180;54238;52.278;21.056;2023-04-29T13:43:55;100199.80;;;24.66
67353;BMP180;54238;52.278;21.056;2023-04-29T13:46:27;100192.60;;;24.20
67353;BMP180;54238;52.278;21.056;2023-04-29T13:48:56;100195.40;;;24.30
67353;BMP180;54238;52.278;21.056;2023-04-29T13:51:24;100204.00;;;24.10
67353;BMP180;54238;52.278;21.056;2023-04-29T13:53:54;100199.80;;;23.80
67353;BMP180;54238;52.278;21.056;2023-04-29T13:56:24;100197.20;;;23.50
67353;BMP180;54238;52.278;21.056;2023-04-29T13:58:58;100202.00;;;23.20
67353;BMP180;54238;52.278;21.056;2023-04-29T14:01:25;100192.60;;;22.90
67353;BMP180;54238;52.278;21.056;2023-04-29T14:03:53;100199.80;;;22.70
67353;BMP180;54238;52.278;21.056;2023-04-29T14:06:25;100194.20;;;22.60
67353;BMP180;54238;52.278;21.056;2023-04-29T14:08:54;100193.00;;;22.50
67353;BMP180;54238;52.278;21.056;2023-04-29T14:11:24;100188.40;;;22.30
67353;BMP180;54238;52.278;21.056;2023-04-29T14:13:53;100181.00;;;22.44
67353;BMP180;54238;52.278;21.056;2023-04-29T14:16:22;100177.40;;;23.02
67353;BMP180;54238;52.278;21.056;2023-04-29T14:18:52;100186.80;;;23.50
67353;BMP180;54238;52.278;21.056;2023-04-29T14:21:19;100184.00;;;23.40
67353;BMP180;54238;52.278;21.056;2023-04-29T14:23:49;100190.20;;;23.20
67353;BMP180;54238;52.278;21.056;2023-04-29T14:26:19;100185.40;;;22.90
67353;BMP180;54238;52.278;21.056;2023-04-29T14:31:35;100189.20;;;22.30
67353;BMP180;54238;52.278;21.056;2023-04-29T14:34:08;100181.20;;;22.10
67353;BMP180;54238;52.278;21.056;2023-04-29T14:36:37;100174.80;;;22.24
67353;BMP180;54238;52.278;21.056;2023-04-29T14:39:07;100184.40;;;22.66
67353;BMP180;54238;52.278;21.056;2023-04-29T14:41:36;100178.00;;;22.70
67353;BMP180;54238;52.278;21.056;2023-04-29T14:44:08;100181.40;;;22.88
67353;BMP180;54238;52.278;21.056;2023-04-29T14:46:35;100176.60;;;22.90
67353;BMP180;54238;52.278;21.056;2023-04-29T14:49:07;100167.00;;;22.90
67353;BMP180;54238;52.278;21.056;2023-04-29T14:51:36;100167.40;;;23.00